sensor_id;sensor_type;location;lat;lon;timestamp;P1;durP1;ratioP1;P2;durP2;ratioP2
40198;SDS011;25906;43.536;26.068;2022-08-30T00:01:03;11.73;;;3.72;;
40198;SDS011;25906;43.536;26.068;2022-08-30T00:04:02;9.45;;;4.60;;
40198;SDS011;25906;43.536;26.068;2022-08-30T00:07:01;11.43;;;3.97;;
40198;SDS011;25906;43.536;26.068;2022-08-30T00:10:01;10.90;;;4.00;;
40198;SDS011;25906;43.536;26.068;2022-08-30T00:13:00;13.38;;;4.55;;
40198;SDS011;25906;43.536;26.068;2022-08-30T00:15:59;9.68;;;5.10;;
40198;SDS011;25906;43.536;26.068;2022-08-30T00:18:58;7.07;;;4.32;;
40198;SDS011;25906;43.536;26.068;2022-08-30T00:21:57;8.27;;;3.63;;
40198;SDS011;25906;43.536;26.068;2022-08-30T00:24:58;11.60;;;4.40;;
40198;SDS011;25906;43.536;26.068;2022-08-30T00:28:04;14.35;;;4.25;;
40198;SDS011;25906;43.536;26.068;2022-08-30T00:31:04;11.10;;;4.70;;
40198;SDS011;25906;43.536;26.068;2022-08-30T00:34:10;21.13;;;4.50;;
40198;SDS011;25906;43.536;26.068;2022-08-30T00:37:09;7.82;;;4.15;;
40198;SDS011;25906;43.536;26.068;2022-08-30T00:40:09;10.88;;;5.15;;
40198;SDS011;25906;43.536;26.068;2022-08-30T00:43:16;8.65;;;4.50;;
40198;SDS011;25906;43.536;26.068;2022-08-30T00:46:27;10.10;;;4.15;;
40198;SDS011;25906;43.536;26.068;2022-08-30T00:49:27;14.23;;;4.43;;
40198;SDS011;25906;43.536;26.068;2022-08-30T00:52:34;8.73;;;4.78;;
40198;SDS011;25906;43.536;26.068;2022-08-30T00:55:41;18.30;;;4.70;;
40198;SDS011;25906;43.536;26.068;2022-08-30T00:58:43;14.40;;;5.18;;
40198;SDS011;25906;43.536;26.068;2022-08-30T01:01:50;13.65;;;4.82;;
40198;SDS011;25906;43.536;26.068;2022-08-30T01:04:50;10.23;;;4.47;;
40198;SDS011;25906;43.536;26.068;2022-08-30T01:07:50;13.48;;;4.70;;
40198;SDS011;25906;43.536;26.068;2022-08-30T01:10:50;10.80;;;4.82;;
40198;SDS011;25906;43.536;26.068;2022-08-30T01:13:56;8.30;;;5.03;;
40198;SDS011;25906;43.536;26.068;2022-08-30T01:16:56;11.25;;;4.95;;
40198;SDS011;25906;43.536;26.068;2022-08-30T01:20:01;8.10;;;4.63;;
40198;SDS011;25906;43.536;26.068;2022-08-30T01:23:13;9.25;;;5.72;;
40198;SDS011;25906;43.536;26.068;2022-08-30T01:26:20;10.85;;;5.07;;
40198;SDS011;25906;43.536;26.068;2022-08-30T01:29:20;24.10;;;5.50;;
40198;SDS011;25906;43.536;26.068;2022-08-30T01:32:27;13.75;;;4.97;;
40198;SDS011;25906;43.536;26.068;2022-08-30T01:35:28;10.77;;;5.32;;
40198;SDS011;25906;43.536;26.068;2022-08-30T01:38:39;12.80;;;5.00;;
40198;SDS011;25906;43.536;26.068;2022-08-30T01:41:46;8.32;;;5.15;;
40198;SDS011;25906;43.536;26.068;2022-08-30T01:44:45;8.73;;;4.78;;
40198;SDS011;25906;43.536;26.068;2022-08-30T01:47:44;10.45;;;5.47;;
40198;SDS011;25906;43.536;26.068;2022-08-30T01:50:43;7.80;;;5.53;;
40198;SDS011;25906;43.536;26.068;2022-08-30T01:53:44;14.23;;;6.38;;
40198;SDS011;25906;43.536;26.068;2022-08-30T01:56:43;15.20;;;5.65;;
40198;SDS011;25906;43.536;26.068;2022-08-30T01:59:42;12.00;;;5.88;;
40198;SDS011;25906;43.536;26.068;2022-08-30T02:02:42;11.90;;;5.40;;
40198;SDS011;25906;43.536;26.068;2022-08-30T02:05:41;12.65;;;5.80;;
40198;SDS011;25906;43.536;26.068;2022-08-30T02:08:41;9.15;;;5.10;;
40198;SDS011;25906;43.536;26.068;2022-08-30T02:11:47;9.82;;;5.57;;
40198;SDS011;25906;43.536;26.068;2022-08-30T02:14:46;13.13;;;6.35;;
40198;SDS011;25906;43.536;26.068;2022-08-30T02:17:45;8.27;;;5.93;;
40198;SDS011;25906;43.536;26.068;2022-08-30T02:20:44;10.68;;;6.65;;
40198;SDS011;25906;43.536;26.068;2022-08-30T02:23:44;12.63;;;5.88;;
40198;SDS011;25906;43.536;26.068;2022-08-30T02:26:42;12.82;;;6.65;;
40198;SDS011;25906;43.536;26.068;2022-08-30T02:29:43;10.43;;;6.47;;
40198;SDS011;25906;43.536;26.068;2022-08-30T02:32:42;10.15;;;6.38;;
40198;SDS011;25906;43.536;26.068;2022-08-30T02:35:41;9.73;;;6.07;;
40198;SDS011;25906;43.536;26.068;2022-08-30T02:38:40;12.77;;;5.82;;
40198;SDS011;25906;43.536;26.068;2022-08-30T02:41:40;11.82;;;5.72;;
40198;SDS011;25906;43.536;26.068;2022-08-30T02:44:39;11.20;;;5.93;;
40198;SDS011;25906;43.536;26.068;2022-08-30T02:47:38;11.32;;;6.20;;
40198;SDS011;25906;43.536;26.068;2022-08-30T02:50:38;13.32;;;6.32;;
40198;SDS011;25906;43.536;26.068;2022-08-30T02:53:45;11.05;;;6.13;;
40198;SDS011;25906;43.536;26.068;2022-08-30T02:56:48;11.18;;;6.32;;
40198;SDS011;25906;43.536;26.068;2022-08-30T02:59:54;14.93;;;6.75;;
40198;SDS011;25906;43.536;26.068;2022-08-30T03:02:53;11.50;;;6.35;;
40198;SDS011;25906;43.536;26.068;2022-08-30T03:05:54;9.68;;;6.50;;
40198;SDS011;25906;43.536;26.068;2022-08-30T03:08:56;9.55;;;6.63;;
40198;SDS011;25906;43.536;26.068;2022-08-30T03:11:55;11.82;;;6.50;;
40198;SDS011;25906;43.536;26.068;2022-08-30T03:14:57;14.98;;;6.57;;
40198;SDS011;25906;43.536;26.068;2022-08-30T03:17:56;10.27;;;6.25;;
40198;SDS011;25906;43.536;26.068;2022-08-30T03:20:54;7.90;;;6.15;;
40198;SDS011;25906;43.536;26.068;2022-08-30T03:23:53;11.85;;;6.43;;
40198;SDS011;25906;43.536;26.068;2022-08-30T03:26:52;12.45;;;6.50;;
40198;SDS011;25906;43.536;26.068;2022-08-30T03:29:51;11.50;;;6.20;;
40198;SDS011;25906;43.536;26.068;2022-08-30T03:32:51;11.00;;;6.63;;
40198;SDS011;25906;43.536;26.068;2022-08-30T03:35:49;10.75;;;6.20;;
40198;SDS011;25906;43.536;26.068;2022-08-30T03:38:48;10.38;;;6.97;;
40198;SDS011;25906;43.536;26.068;2022-08-30T03:41:49;13.35;;;7.10;;
40198;SDS011;25906;43.536;26.068;2022-08-30T03:44:48;12.65;;;6.93;;
40198;SDS011;25906;43.536;26.068;2022-08-30T03:47:47;10.48;;;6.85;;
40198;SDS011;25906;43.536;26.068;2022-08-30T03:50:46;13.55;;;7.07;;
40198;SDS011;25906;43.536;26.068;2022-08-30T03:53:45;13.18;;;7.10;;
40198;SDS011;25906;43.536;26.068;2022-08-30T03:56:44;10.35;;;7.18;;
40198;SDS011;25906;43.536;26.068;2022-08-30T03:59:43;9.77;;;7.05;;
40198;SDS011;25906;43.536;26.068;2022-08-30T04:02:42;10.13;;;6.50;;
40198;SDS011;25906;43.536;26.068;2022-08-30T04:05:41;13.23;;;7.30;;
40198;SDS011;25906;43.536;26.068;2022-08-30T04:08:40;11.05;;;6.88;;
40198;SDS011;25906;43.536;26.068;2022-08-30T04:11:39;14.13;;;7.25;;
40198;SDS011;25906;43.536;26.068;2022-08-30T04:14:38;14.18;;;7.72;;
40198;SDS011;25906;43.536;26.068;2022-08-30T04:17:37;11.75;;;7.68;;
40198;SDS011;25906;43.536;26.068;2022-08-30T04:20:37;10.32;;;7.03;;
40198;SDS011;25906;43.536;26.068;2022-08-30T04:23:35;10.95;;;6.65;;
40198;SDS011;25906;43.536;26.068;2022-08-30T04:26:34;12.23;;;6.93;;
40198;SDS011;25906;43.536;26.068;2022-08-30T04:29:33;9.20;;;6.72;;
40198;SDS011;25906;43.536;26.068;2022-08-30T04:32:33;8.82;;;6.50;;
40198;SDS011;25906;43.536;26.068;2022-08-30T04:35:32;15.65;;;7.10;;
40198;SDS011;25906;43.536;26.068;2022-08-30T04:38:32;11.27;;;6.97;;
40198;SDS011;25906;43.536;26.068;2022-08-30T04:41:32;10.63;;;6.80;;
40198;SDS011;25906;43.536;26.068;2022-08-30T04:44:31;10.77;;;6.90;;
40198;SDS011;25906;43.536;26.068;2022-08-30T04:47:30;9.88;;;6.70;;
40198;SDS011;25906;43.536;26.068;2022-08-30T04:50:29;9.18;;;6.93;;
40198;SDS011;25906;43.536;26.068;2022-08-30T04:53:28;10.95;;;7.43;;
40198;SDS011;25906;43.536;26.068;2022-08-30T04:56:27;13.90;;;7.15;;
40198;SDS011;25906;43.536;26.068;2022-08-30T04:59:26;9.88;;;6.30;;
40198;SDS011;25906;43.536;26.068;2022-08-30T05:02:25;9.32;;;6.53;;
40198;SDS011;25906;43.536;26.068;2022-08-30T05:05:24;11.82;;;7.20;;
40198;SDS011;25906;43.536;26.068;2022-08-30T05:08:32;12.18;;;6.88;;
40198;SDS011;25906;43.536;26.068;2022-08-30T05:11:32;11.73;;;6.40;;
40198;SDS011;25906;43.536;26.068;2022-08-30T05:14:30;8.85;;;6.53;;
40198;SDS011;25906;43.536;26.068;2022-08-30T05:17:29;12.07;;;6.85;;
40198;SDS011;25906;43.536;26.068;2022-08-30T05:20:29;10.52;;;6.32;;
40198;SDS011;25906;43.536;26.068;2022-08-30T05:23:28;12.20;;;5.63;;
40198;SDS011;25906;43.536;26.068;2022-08-30T05:26:29;17.70;;;7.00;;
40198;SDS011;25906;43.536;26.068;2022-08-30T05:29:35;10.07;;;6.47;;
40198;SDS011;25906;43.536;26.068;2022-08-30T05:32:34;10.93;;;6.40;;
40198;SDS011;25906;43.536;26.068;2022-08-30T05:35:33;9.23;;;5.85;;
40198;SDS011;25906;43.536;26.068;2022-08-30T05:38:32;8.18;;;6.13;;
40198;SDS011;25906;43.536;26.068;2022-08-30T05:41:32;11.43;;;6.13;;
40198;SDS011;25906;43.536;26.068;2022-08-30T05:44:30;9.95;;;6.05;;
40198;SDS011;25906;43.536;26.068;2022-08-30T05:47:30;9.43;;;6.10;;
40198;SDS011;25906;43.536;26.068;2022-08-30T05:50:28;9.70;;;5.88;;
40198;SDS011;25906;43.536;26.068;2022-08-30T05:53:28;10.63;;;6.72;;
40198;SDS011;25906;43.536;26.068;2022-08-30T05:56:29;8.25;;;5.82;;
40198;SDS011;25906;43.536;26.068;2022-08-30T05:59:36;7.35;;;5.88;;
40198;SDS011;25906;43.536;26.068;2022-08-30T06:02:34;14.98;;;5.95;;
40198;SDS011;25906;43.536;26.068;2022-08-30T06:05:34;9.85;;;6.07;;
40198;SDS011;25906;43.536;26.068;2022-08-30T06:08:41;7.53;;;5.72;;
40198;SDS011;25906;43.536;26.068;2022-08-30T06:11:40;7.22;;;5.40;;
40198;SDS011;25906;43.536;26.068;2022-08-30T06:14:40;9.05;;;6.40;;
40198;SDS011;25906;43.536;26.068;2022-08-30T06:17:38;9.32;;;6.13;;
40198;SDS011;25906;43.536;26.068;2022-08-30T06:20:39;12.40;;;6.55;;
40198;SDS011;25906;43.536;26.068;2022-08-30T06:23:45;9.77;;;6.35;;
40198;SDS011;25906;43.536;26.068;2022-08-30T06:26:44;9.02;;;6.03;;
40198;SDS011;25906;43.536;26.068;2022-08-30T06:32:50;10.23;;;6.35;;
40198;SDS011;25906;43.536;26.068;2022-08-30T06:35:49;9.63;;;5.72;;
40198;SDS011;25906;43.536;26.068;2022-08-30T06:38:48;7.63;;;5.70;;
40198;SDS011;25906;43.536;26.068;2022-08-30T06:41:49;7.57;;;6.05;;
40198;SDS011;25906;43.536;26.068;2022-08-30T06:44:48;13.00;;;6.40;;
40198;SDS011;25906;43.536;26.068;2022-08-30T06:47:47;7.22;;;5.20;;
40198;SDS011;25906;43.536;26.068;2022-08-30T06:50:51;10.43;;;6.28;;
40198;SDS011;25906;43.536;26.068;2022-08-30T06:53:57;7.80;;;5.93;;
40198;SDS011;25906;43.536;26.068;2022-08-30T06:56:57;7.57;;;5.80;;
40198;SDS011;25906;43.536;26.068;2022-08-30T06:59:56;9.82;;;5.78;;
40198;SDS011;25906;43.536;26.068;2022-08-30T07:02:56;11.50;;;6.18;;
40198;SDS011;25906;43.536;26.068;2022-08-30T07:05:55;8.65;;;5.72;;
40198;SDS011;25906;43.536;26.068;2022-08-30T07:08:54;12.65;;;6.60;;
40198;SDS011;25906;43.536;26.068;2022-08-30T07:11:54;8.70;;;6.18;;
40198;SDS011;25906;43.536;26.068;2022-08-30T07:14:53;7.57;;;5.70;;
40198;SDS011;25906;43.536;26.068;2022-08-30T07:17:52;7.28;;;5.80;;
40198;SDS011;25906;43.536;26.068;2022-08-30T07:21:11;11.90;;;6.63;;
40198;SDS011;25906;43.536;26.068;2022-08-30T07:24:23;8.30;;;6.13;;
40198;SDS011;25906;43.536;26.068;2022-08-30T07:27:22;7.78;;;5.75;;
40198;SDS011;25906;43.536;26.068;2022-08-30T07:30:21;10.18;;;6.45;;
40198;SDS011;25906;43.536;26.068;2022-08-30T07:33:20;10.75;;;7.07;;
40198;SDS011;25906;43.536;26.068;2022-08-30T07:36:19;11.88;;;7.80;;
40198;SDS011;25906;43.536;26.068;2022-08-30T07:39:18;12.52;;;6.22;;
40198;SDS011;25906;43.536;26.068;2022-08-30T07:42:17;12.00;;;6.30;;
40198;SDS011;25906;43.536;26.068;2022-08-30T07:45:16;8.68;;;6.00;;
40198;SDS011;25906;43.536;26.068;2022-08-30T07:48:15;12.45;;;6.78;;
40198;SDS011;25906;43.536;26.068;2022-08-30T07:51:15;7.93;;;6.03;;
40198;SDS011;25906;43.536;26.068;2022-08-30T07:54:22;11.60;;;6.60;;
40198;SDS011;25906;43.536;26.068;2022-08-30T07:57:21;12.10;;;5.85;;
40198;SDS011;25906;43.536;26.068;2022-08-30T08:00:24;9.05;;;6.63;;
40198;SDS011;25906;43.536;26.068;2022-08-30T08:03:31;9.20;;;6.50;;
40198;SDS011;25906;43.536;26.068;2022-08-30T08:06:36;9.45;;;5.88;;
40198;SDS011;25906;43.536;26.068;2022-08-30T08:09:42;11.73;;;6.72;;
40198;SDS011;25906;43.536;26.068;2022-08-30T08:12:41;6.97;;;5.95;;
40198;SDS011;25906;43.536;26.068;2022-08-30T08:15:40;11.40;;;6.03;;
40198;SDS011;25906;43.536;26.068;2022-08-30T08:18:39;12.48;;;7.10;;
40198;SDS011;25906;43.536;26.068;2022-08-30T08:21:38;8.98;;;6.47;;
40198;SDS011;25906;43.536;26.068;2022-08-30T08:24:37;10.10;;;5.90;;
40198;SDS011;25906;43.536;26.068;2022-08-30T08:27:36;9.50;;;6.30;;
40198;SDS011;25906;43.536;26.068;2022-08-30T08:30:35;14.60;;;5.85;;
40198;SDS011;25906;43.536;26.068;2022-08-30T08:33:35;11.13;;;5.72;;
40198;SDS011;25906;43.536;26.068;2022-08-30T08:36:34;8.35;;;5.93;;
40198;SDS011;25906;43.536;26.068;2022-08-30T08:39:33;6.25;;;5.50;;
40198;SDS011;25906;43.536;26.068;2022-08-30T08:46:01;8.73;;;6.38;;
40198;SDS011;25906;43.536;26.068;2022-08-30T08:49:17;8.75;;;5.68;;
40198;SDS011;25906;43.536;26.068;2022-08-30T08:52:19;11.50;;;6.00;;
40198;SDS011;25906;43.536;26.068;2022-08-30T08:55:53;10.32;;;5.80;;
40198;SDS011;25906;43.536;26.068;2022-08-30T08:58:52;9.30;;;6.25;;
40198;SDS011;25906;43.536;26.068;2022-08-30T09:02:00;9.70;;;6.50;;
40198;SDS011;25906;43.536;26.068;2022-08-30T09:05:18;6.78;;;5.43;;
40198;SDS011;25906;43.536;26.068;2022-08-30T09:08:27;9.68;;;5.57;;
40198;SDS011;25906;43.536;26.068;2022-08-30T09:11:27;8.50;;;6.38;;
40198;SDS011;25906;43.536;26.068;2022-08-30T09:14:38;16.17;;;6.72;;
40198;SDS011;25906;43.536;26.068;2022-08-30T09:21:04;9.27;;;5.57;;
40198;SDS011;25906;43.536;26.068;2022-08-30T09:24:10;9.43;;;5.43;;
40198;SDS011;25906;43.536;26.068;2022-08-30T09:27:20;9.95;;;5.97;;
40198;SDS011;25906;43.536;26.068;2022-08-30T09:30:37;9.50;;;5.80;;
40198;SDS011;25906;43.536;26.068;2022-08-30T09:33:40;6.97;;;5.40;;
40198;SDS011;25906;43.536;26.068;2022-08-30T09:36:43;10.18;;;5.00;;
40198;SDS011;25906;43.536;26.068;2022-08-30T09:39:50;7.68;;;5.22;;
40198;SDS011;25906;43.536;26.068;2022-08-30T09:43:49;19.27;;;5.70;;
40198;SDS011;25906;43.536;26.068;2022-08-30T09:46:25;8.60;;;5.10;;
40198;SDS011;25906;43.536;26.068;2022-08-30T09:56:06;7.15;;;5.22;;
40198;SDS011;25906;43.536;26.068;2022-08-30T10:05:57;8.65;;;5.30;;
40198;SDS011;25906;43.536;26.068;2022-08-30T10:09:28;7.90;;;5.75;;
40198;SDS011;25906;43.536;26.068;2022-08-30T10:16:00;5.88;;;4.97;;
40198;SDS011;25906;43.536;26.068;2022-08-30T10:26:10;7.70;;;5.03;;
40198;SDS011;25906;43.536;26.068;2022-08-30T10:36:07;6.80;;;4.88;;
40198;SDS011;25906;43.536;26.068;2022-08-30T10:39:26;6.13;;;4.32;;
40198;SDS011;25906;43.536;26.068;2022-08-30T10:42:36;8.82;;;5.28;;
40198;SDS011;25906;43.536;26.068;2022-08-30T10:45:36;12.52;;;5.38;;
40198;SDS011;25906;43.536;26.068;2022-08-30T10:48:46;10.98;;;6.53;;
40198;SDS011;25906;43.536;26.068;2022-08-30T10:51:46;7.68;;;4.57;;
40198;SDS011;25906;43.536;26.068;2022-08-30T10:54:59;11.05;;;4.68;;
40198;SDS011;25906;43.536;26.068;2022-08-30T10:58:05;12.02;;;4.93;;
40198;SDS011;25906;43.536;26.068;2022-08-30T11:21:16;7.93;;;3.90;;
40198;SDS011;25906;43.536;26.068;2022-08-30T11:28:04;6.45;;;4.07;;
40198;SDS011;25906;43.536;26.068;2022-08-30T11:37:45;7.18;;;4.20;;
40198;SDS011;25906;43.536;26.068;2022-08-30T11:40:46;9.32;;;5.03;;
40198;SDS011;25906;43.536;26.068;2022-08-30T11:43:53;8.13;;;4.40;;
40198;SDS011;25906;43.536;26.068;2022-08-30T11:46:53;11.27;;;4.25;;
40198;SDS011;25906;43.536;26.068;2022-08-30T11:53:49;8.57;;;4.50;;
40198;SDS011;25906;43.536;26.068;2022-08-30T12:00:40;9.10;;;4.40;;
40198;SDS011;25906;43.536;26.068;2022-08-30T12:04:46;6.32;;;3.95;;
40198;SDS011;25906;43.536;26.068;2022-08-30T12:07:54;9.88;;;4.20;;
40198;SDS011;25906;43.536;26.068;2022-08-30T12:14:01;8.25;;;3.92;;
40198;SDS011;25906;43.536;26.068;2022-08-30T12:17:29;9.45;;;4.25;;
40198;SDS011;25906;43.536;26.068;2022-08-30T12:21:24;8.50;;;4.13;;
40198;SDS011;25906;43.536;26.068;2022-08-30T12:24:37;6.57;;;3.92;;
40198;SDS011;25906;43.536;26.068;2022-08-30T12:27:47;8.80;;;3.75;;
40198;SDS011;25906;43.536;26.068;2022-08-30T12:30:46;6.97;;;4.50;;
40198;SDS011;25906;43.536;26.068;2022-08-30T12:33:46;7.45;;;4.53;;
40198;SDS011;25906;43.536;26.068;2022-08-30T12:36:55;13.40;;;4.25;;
40198;SDS011;25906;43.536;26.068;2022-08-30T12:40:17;7.78;;;4.15;;
40198;SDS011;25906;43.536;26.068;2022-08-30T12:43:27;6.15;;;3.83;;
40198;SDS011;25906;43.536;26.068;2022-08-30T12:46:35;7.72;;;4.00;;
40198;SDS011;25906;43.536;26.068;2022-08-30T12:49:34;6.40;;;4.43;;
40198;SDS011;25906;43.536;26.068;2022-08-30T12:52:42;5.88;;;3.97;;
40198;SDS011;25906;43.536;26.068;2022-08-30T12:55:59;13.77;;;4.70;;
40198;SDS011;25906;43.536;26.068;2022-08-30T12:59:05;10.98;;;4.30;;
40198;SDS011;25906;43.536;26.068;2022-08-30T13:02:11;4.30;;;3.90;;
40198;SDS011;25906;43.536;26.068;2022-08-30T13:08:47;8.13;;;4.57;;
40198;SDS011;25906;43.536;26.068;2022-08-30T13:11:53;12.30;;;4.80;;
40198;SDS011;25906;43.536;26.068;2022-08-30T13:14:52;8.20;;;4.47;;
40198;SDS011;25906;43.536;26.068;2022-08-30T13:18:18;9.38;;;4.93;;
40198;SDS011;25906;43.536;26.068;2022-08-30T13:21:26;9.55;;;5.20;;
40198;SDS011;25906;43.536;26.068;2022-08-30T13:24:33;7.55;;;4.20;;
40198;SDS011;25906;43.536;26.068;2022-08-30T13:27:32;16.05;;;4.70;;
40198;SDS011;25906;43.536;26.068;2022-08-30T13:30:32;9.50;;;4.30;;
40198;SDS011;25906;43.536;26.068;2022-08-30T13:33:31;11.35;;;4.95;;
40198;SDS011;25906;43.536;26.068;2022-08-30T13:36:31;15.43;;;5.53;;
40198;SDS011;25906;43.536;26.068;2022-08-30T13:39:42;12.82;;;4.60;;
40198;SDS011;25906;43.536;26.068;2022-08-30T13:42:41;12.75;;;4.15;;
40198;SDS011;25906;43.536;26.068;2022-08-30T13:45:40;7.07;;;4.43;;
40198;SDS011;25906;43.536;26.068;2022-08-30T13:48:39;10.32;;;5.05;;
40198;SDS011;25906;43.536;26.068;2022-08-30T13:51:38;13.27;;;4.63;;
40198;SDS011;25906;43.536;26.068;2022-08-30T13:54:38;9.32;;;4.00;;
40198;SDS011;25906;43.536;26.068;2022-08-30T13:57:38;10.20;;;4.07;;
40198;SDS011;25906;43.536;26.068;2022-08-30T14:00:37;8.10;;;4.45;;
40198;SDS011;25906;43.536;26.068;2022-08-30T14:03:39;5.80;;;3.85;;
40198;SDS011;25906;43.536;26.068;2022-08-30T14:06:38;9.38;;;4.65;;
40198;SDS011;25906;43.536;26.068;2022-08-30T14:09:38;12.35;;;4.75;;
40198;SDS011;25906;43.536;26.068;2022-08-30T14:12:44;8.27;;;4.45;;
40198;SDS011;25906;43.536;26.068;2022-08-30T14:15:43;7.80;;;4.80;;
40198;SDS011;25906;43.536;26.068;2022-08-30T14:18:42;10.70;;;4.50;;
40198;SDS011;25906;43.536;26.068;2022-08-30T14:21:41;13.95;;;5.00;;
40198;SDS011;25906;43.536;26.068;2022-08-30T14:24:41;6.72;;;4.45;;
40198;SDS011;25906;43.536;26.068;2022-08-30T14:27:40;12.88;;;4.50;;
40198;SDS011;25906;43.536;26.068;2022-08-30T14:30:39;6.97;;;4.03;;
40198;SDS011;25906;43.536;26.068;2022-08-30T14:33:38;12.40;;;4.80;;
40198;SDS011;25906;43.536;26.068;2022-08-30T14:36:38;9.20;;;4.35;;
40198;SDS011;25906;43.536;26.068;2022-08-30T14:39:44;12.68;;;3.78;;
40198;SDS011;25906;43.536;26.068;2022-08-30T14:42:43;11.25;;;4.10;;
40198;SDS011;25906;43.536;26.068;2022-08-30T14:45:42;9.50;;;4.00;;
40198;SDS011;25906;43.536;26.068;2022-08-30T14:48:41;5.60;;;4.07;;
40198;SDS011;25906;43.536;26.068;2022-08-30T14:51:40;7.60;;;4.78;;
40198;SDS011;25906;43.536;26.068;2022-08-30T14:54:40;13.60;;;5.88;;
40198;SDS011;25906;43.536;26.068;2022-08-30T14:57:39;11.70;;;5.03;;
40198;SDS011;25906;43.536;26.068;2022-08-30T15:00:39;9.32;;;5.70;;
40198;SDS011;25906;43.536;26.068;2022-08-30T15:03:38;19.25;;;5.57;;
40198;SDS011;25906;43.536;26.068;2022-08-30T15:06:39;15.60;;;4.88;;
40198;SDS011;25906;43.536;26.068;2022-08-30T15:09:45;12.10;;;4.85;;
40198;SDS011;25906;43.536;26.068;2022-08-30T15:12:48;11.35;;;5.43;;
40198;SDS011;25906;43.536;26.068;2022-08-30T15:15:53;9.20;;;4.60;;
40198;SDS011;25906;43.536;26.068;2022-08-30T15:18:52;9.98;;;5.35;;
40198;SDS011;25906;43.536;26.068;2022-08-30T15:21:52;9.68;;;5.00;;
40198;SDS011;25906;43.536;26.068;2022-08-30T15:24:51;9.82;;;4.93;;
40198;SDS011;25906;43.536;26.068;2022-08-30T15:27:52;11.20;;;4.75;;
40198;SDS011;25906;43.536;26.068;2022-08-30T15:30:51;12.38;;;4.72;;
40198;SDS011;25906;43.536;26.068;2022-08-30T15:33:50;12.13;;;4.65;;
40198;SDS011;25906;43.536;26.068;2022-08-30T15:36:49;6.97;;;4.65;;
40198;SDS011;25906;43.536;26.068;2022-08-30T15:39:49;7.60;;;4.93;;
40198;SDS011;25906;43.536;26.068;2022-08-30T15:42:48;12.70;;;5.50;;
40198;SDS011;25906;43.536;26.068;2022-08-30T15:45:47;12.15;;;4.80;;
40198;SDS011;25906;43.536;26.068;2022-08-30T15:48:46;10.50;;;5.03;;
40198;SDS011;25906;43.536;26.068;2022-08-30T15:51:46;13.10;;;4.60;;
40198;SDS011;25906;43.536;26.068;2022-08-30T15:54:46;8.55;;;4.55;;
40198;SDS011;25906;43.536;26.068;2022-08-30T15:57:45;10.98;;;4.40;;
40198;SDS011;25906;43.536;26.068;2022-08-30T16:00:44;18.67;;;5.43;;
40198;SDS011;25906;43.536;26.068;2022-08-30T16:03:43;16.58;;;4.95;;
40198;SDS011;25906;43.536;26.068;2022-08-30T16:06:42;10.35;;;5.20;;
40198;SDS011;25906;43.536;26.068;2022-08-30T16:09:41;8.32;;;5.05;;
40198;SDS011;25906;43.536;26.068;2022-08-30T16:12:40;9.93;;;4.97;;
40198;SDS011;25906;43.536;26.068;2022-08-30T16:15:39;6.78;;;4.53;;
40198;SDS011;25906;43.536;26.068;2022-08-30T16:18:38;18.23;;;5.82;;
40198;SDS011;25906;43.536;26.068;2022-08-30T16:21:37;14.38;;;5.20;;
40198;SDS011;25906;43.536;26.068;2022-08-30T16:24:37;12.77;;;5.30;;
40198;SDS011;25906;43.536;26.068;2022-08-30T16:27:36;11.27;;;5.47;;
40198;SDS011;25906;43.536;26.068;2022-08-30T16:30:35;12.82;;;5.35;;
40198;SDS011;25906;43.536;26.068;2022-08-30T16:33:35;18.95;;;5.15;;
40198;SDS011;25906;43.536;26.068;2022-08-30T16:36:41;29.40;;;8.07;;
40198;SDS011;25906;43.536;26.068;2022-08-30T16:39:40;12.65;;;6.68;;
40198;SDS011;25906;43.536;26.068;2022-08-30T16:42:39;9.73;;;5.45;;
40198;SDS011;25906;43.536;26.068;2022-08-30T16:45:38;10.88;;;5.85;;
40198;SDS011;25906;43.536;26.068;2022-08-30T16:48:38;13.70;;;6.32;;
40198;SDS011;25906;43.536;26.068;2022-08-30T16:51:39;13.05;;;6.45;;
40198;SDS011;25906;43.536;26.068;2022-08-30T16:54:38;10.60;;;5.40;;
40198;SDS011;25906;43.536;26.068;2022-08-30T16:57:37;9.38;;;5.30;;
40198;SDS011;25906;43.536;26.068;2022-08-30T17:00:36;8.85;;;5.47;;
40198;SDS011;25906;43.536;26.068;2022-08-30T17:03:36;9.32;;;4.70;;
40198;SDS011;25906;43.536;26.068;2022-08-30T17:06:35;12.43;;;4.43;;
40198;SDS011;25906;43.536;26.068;2022-08-30T17:09:34;12.30;;;5.32;;
40198;SDS011;25906;43.536;26.068;2022-08-30T17:12:33;13.77;;;5.57;;
40198;SDS011;25906;43.536;26.068;2022-08-30T17:15:32;9.07;;;5.03;;
40198;SDS011;25906;43.536;26.068;2022-08-30T17:18:31;11.88;;;5.95;;
40198;SDS011;25906;43.536;26.068;2022-08-30T17:21:38;12.23;;;5.60;;
40198;SDS011;25906;43.536;26.068;2022-08-30T17:24:37;10.65;;;5.03;;
40198;SDS011;25906;43.536;26.068;2022-08-30T17:27:37;10.85;;;4.75;;
40198;SDS011;25906;43.536;26.068;2022-08-30T17:30:36;7.47;;;4.60;;
40198;SDS011;25906;43.536;26.068;2022-08-30T17:33:35;19.70;;;5.93;;
40198;SDS011;25906;43.536;26.068;2022-08-30T17:36:35;9.85;;;5.00;;
40198;SDS011;25906;43.536;26.068;2022-08-30T17:39:36;19.63;;;6.20;;
40198;SDS011;25906;43.536;26.068;2022-08-30T17:42:35;13.93;;;5.57;;
40198;SDS011;25906;43.536;26.068;2022-08-30T17:45:35;10.38;;;6.25;;
40198;SDS011;25906;43.536;26.068;2022-08-30T17:48:34;12.98;;;7.90;;
40198;SDS011;25906;43.536;26.068;2022-08-30T17:51:42;15.07;;;7.60;;
40198;SDS011;25906;43.536;26.068;2022-08-30T17:54:41;12.57;;;6.40;;
40198;SDS011;25906;43.536;26.068;2022-08-30T17:57:41;12.93;;;6.30;;
40198;SDS011;25906;43.536;26.068;2022-08-30T18:00:40;13.07;;;6.90;;
40198;SDS011;25906;43.536;26.068;2022-08-30T18:03:39;15.18;;;6.53;;
40198;SDS011;25906;43.536;26.068;2022-08-30T18:06:40;16.13;;;7.35;;
40198;SDS011;25906;43.536;26.068;2022-08-30T18:09:39;12.77;;;6.57;;
40198;SDS011;25906;43.536;26.068;2022-08-30T18:12:39;10.55;;;6.53;;
40198;SDS011;25906;43.536;26.068;2022-08-30T18:15:38;12.40;;;6.95;;
40198;SDS011;25906;43.536;26.068;2022-08-30T18:18:37;13.70;;;7.50;;
40198;SDS011;25906;43.536;26.068;2022-08-30T18:21:36;19.55;;;7.07;;
40198;SDS011;25906;43.536;26.068;2022-08-30T18:24:35;13.10;;;6.63;;
40198;SDS011;25906;43.536;26.068;2022-08-30T18:27:35;10.93;;;6.30;;
40198;SDS011;25906;43.536;26.068;2022-08-30T18:30:41;16.20;;;7.00;;
40198;SDS011;25906;43.536;26.068;2022-08-30T18:33:40;10.93;;;6.60;;
40198;SDS011;25906;43.536;26.068;2022-08-30T18:36:39;12.13;;;6.75;;
40198;SDS011;25906;43.536;26.068;2022-08-30T18:39:38;8.68;;;6.00;;
40198;SDS011;25906;43.536;26.068;2022-08-30T18:42:38;13.18;;;7.40;;
40198;SDS011;25906;43.536;26.068;2022-08-30T18:45:40;9.52;;;6.75;;
40198;SDS011;25906;43.536;26.068;2022-08-30T18:48:46;13.50;;;6.50;;
40198;SDS011;25906;43.536;26.068;2022-08-30T18:51:45;12.98;;;6.75;;
40198;SDS011;25906;43.536;26.068;2022-08-30T18:54:45;9.63;;;6.65;;
40198;SDS011;25906;43.536;26.068;2022-08-30T18:57:44;10.07;;;6.65;;
40198;SDS011;25906;43.536;26.068;2022-08-30T19:00:43;13.85;;;7.32;;
40198;SDS011;25906;43.536;26.068;2022-08-30T19:03:42;9.68;;;6.65;;
40198;SDS011;25906;43.536;26.068;2022-08-30T19:06:42;13.55;;;6.75;;
40198;SDS011;25906;43.536;26.068;2022-08-30T19:09:41;11.25;;;6.43;;
40198;SDS011;25906;43.536;26.068;2022-08-30T19:12:40;12.85;;;6.55;;
40198;SDS011;25906;43.536;26.068;2022-08-30T19:15:39;12.77;;;7.38;;